createdAt,value
2023-04-19T00:02:23.820Z,71.54
2023-04-19T00:04:51.603Z,71.61
2023-04-19T00:07:21.288Z,71.70
2023-04-19T00:09:48.801Z,71.78
2023-04-19T00:12:16.313Z,71.77
2023-04-19T00:14:43.873Z,71.86
2023-04-19T00:17:12.236Z,71.92
2023-04-19T00:19:39.733Z,72.10
2023-04-19T00:22:07.209Z,72.07
2023-04-19T00:24:36.256Z,71.92
2023-04-19T00:27:03.760Z,72.38
2023-04-19T00:29:31.713Z,72.02
2023-04-19T00:31:59.203Z,72.17
2023-04-19T00:34:26.818Z,71.96
2023-04-19T00:36:54.328Z,71.87
2023-04-19T00:39:21.848Z,72.10
2023-04-19T00:41:50.716Z,72.26
2023-04-19T00:44:18.261Z,72.27
2023-04-19T00:46:46.514Z,72.38
2023-04-19T00:49:14.054Z,72.34
2023-04-19T00:51:41.735Z,72.07
2023-04-19T00:54:09.653Z,72.17
2023-04-19T00:56:37.263Z,72.13
2023-04-19T00:59:06.162Z,72.08
2023-04-19T01:01:34.779Z,72.33
2023-04-19T01:04:03.496Z,72.15
2023-04-19T01:06:31.803Z,72.23
2023-04-19T01:08:59.637Z,72.17
2023-04-19T01:11:27.643Z,72.25
2023-04-19T01:13:56.556Z,72.10
2023-04-19T01:16:27.019Z,72.25
2023-04-19T01:18:55.035Z,72.26
2023-04-19T01:21:23.394Z,72.16
2023-04-19T01:23:52.284Z,72.33
2023-04-19T01:26:20.256Z,72.41
2023-04-19T01:28:47.793Z,72.23
2023-04-19T01:31:15.424Z,72.25
2023-04-19T01:33:43.027Z,72.21
2023-04-19T01:36:10.837Z,72.39
2023-04-19T01:38:38.532Z,72.38
2023-04-19T01:41:07.971Z,72.35
2023-04-19T01:43:35.557Z,72.41
2023-04-19T01:46:03.406Z,72.48
2023-04-19T01:48:30.958Z,72.60
2023-04-19T01:50:58.458Z,72.59
2023-04-19T01:53:26.049Z,72.45
2023-04-19T01:55:53.607Z,72.55
2023-04-19T01:58:22.464Z,74.22
2023-04-19T02:00:50.137Z,73.08
2023-04-19T02:03:17.801Z,72.92
2023-04-19T02:05:45.486Z,72.98
2023-04-19T02:08:12.986Z,72.93
2023-04-19T02:10:40.512Z,73.07
2023-04-19T02:13:08.018Z,73.00
2023-04-19T02:15:37.999Z,72.95
2023-04-19T02:18:06.739Z,73.45
2023-04-19T02:20:34.565Z,72.98
2023-04-19T02:23:02.079Z,72.90
2023-04-19T02:25:29.562Z,73.03
2023-04-19T02:27:57.054Z,73.00
2023-04-19T02:30:24.626Z,73.53
2023-04-19T02:32:54.970Z,73.39
2023-04-19T02:35:22.981Z,73.11
2023-04-19T02:37:50.531Z,72.88
2023-04-19T02:40:18.205Z,72.87
2023-04-19T02:42:45.801Z,72.72
2023-04-19T02:45:13.327Z,72.66
2023-04-19T02:47:40.896Z,72.69
2023-04-19T02:50:11.858Z,72.71
2023-04-19T02:52:39.616Z,73.63
2023-04-19T02:55:07.876Z,75.74
2023-04-19T02:57:35.400Z,73.88
2023-04-19T03:00:05.165Z,73.50
2023-04-19T03:02:32.768Z,73.80
2023-04-19T03:05:00.377Z,72.99
2023-04-19T03:07:29.240Z,72.54
2023-04-19T03:09:56.856Z,74.66
2023-04-19T03:12:24.494Z,74.14
2023-04-19T03:14:51.974Z,76.02
2023-04-19T03:17:19.565Z,77.04
2023-04-19T03:19:47.078Z,76.58
2023-04-19T03:22:14.603Z,75.34
2023-04-19T03:24:43.630Z,74.43
2023-04-19T03:27:11.165Z,74.72
2023-04-19T03:29:38.672Z,73.35
2023-04-19T03:32:06.365Z,73.07
2023-04-19T03:34:33.933Z,75.29
2023-04-19T03:37:01.479Z,73.38
2023-04-19T03:39:29.198Z,73.03
2023-04-19T03:41:58.117Z,72.66
2023-04-19T03:44:25.646Z,72.59
2023-04-19T03:46:53.303Z,72.50
2023-04-19T03:49:20.900Z,74.40
2023-04-19T03:51:48.434Z,73.79
2023-04-19T03:54:16.629Z,72.64
2023-04-19T03:56:44.340Z,73.61
2023-04-19T03:59:13.276Z,76.20
2023-04-19T04:01:42.320Z,75.67
2023-04-19T04:04:10.326Z,74.87
2023-04-19T04:06:38.023Z,73.37
2023-04-19T04:09:05.545Z,72.68
2023-04-19T04:11:33.103Z,71.80
2023-04-19T04:14:00.614Z,71.71
2023-04-19T04:16:29.552Z,71.57
2023-04-19T04:18:57.179Z,71.76
2023-04-19T04:21:26.323Z,71.84
2023-04-19T04:23:53.926Z,72.24
2023-04-19T04:26:21.854Z,71.86
2023-04-19T04:28:49.387Z,71.78
2023-04-19T04:31:18.259Z,71.80
2023-04-19T04:33:47.269Z,71.91
2023-04-19T04:36:15.323Z,72.22
2023-04-19T04:38:43.929Z,72.73
2023-04-19T04:41:12.871Z,74.51
2023-04-19T04:43:40.393Z,74.44
2023-04-19T04:46:07.950Z,75.46
2023-04-19T04:48:35.601Z,76.63
2023-04-19T04:51:04.644Z,76.47
2023-04-19T04:53:32.242Z,76.79
2023-04-19T04:55:59.819Z,75.41
2023-04-19T04:58:27.389Z,77.58
2023-04-19T05:00:55.553Z,75.99
2023-04-19T05:03:23.172Z,76.87
2023-04-19T05:05:51.042Z,75.43
2023-04-19T05:08:19.886Z,75.91
2023-04-19T05:10:47.453Z,75.97
2023-04-19T05:13:14.978Z,75.77
2023-04-19T05:15:42.506Z,74.33
2023-04-19T05:18:10.074Z,73.38
2023-04-19T05:20:37.595Z,72.72
2023-04-19T05:23:05.135Z,73.66
2023-04-19T05:25:34.309Z,74.50
2023-04-19T05:28:03.441Z,75.34
2023-04-19T05:30:30.981Z,75.64
2023-04-19T05:32:59.032Z,73.92
2023-04-19T05:35:26.870Z,73.77
2023-04-19T05:37:54.350Z,75.74
2023-04-19T05:40:23.691Z,74.77
2023-04-19T05:42:52.982Z,73.15
2023-04-19T05:45:22.856Z,73.16
2023-04-19T05:47:50.432Z,72.56
2023-04-19T05:50:20.557Z,72.15
2023-04-19T05:52:48.188Z,72.07
2023-04-19T05:55:15.680Z,72.78
2023-04-19T05:57:43.177Z,72.03
2023-04-19T06:00:13.355Z,72.29
2023-04-19T06:02:41.105Z,74.28
2023-04-19T06:05:10.706Z,75.44
2023-04-19T06:07:43.155Z,74.37
2023-04-19T06:10:14.764Z,75.23
2023-04-19T06:12:42.250Z,74.17
2023-04-19T06:15:12.436Z,75.32
2023-04-19T06:17:40.109Z,74.10
2023-04-19T06:20:10.171Z,74.74
2023-04-19T06:22:45.915Z,73.43
2023-04-19T06:25:13.460Z,74.25
2023-04-19T06:27:41.065Z,72.87
2023-04-19T06:30:09.357Z,71.25
2023-04-19T06:32:38.413Z,72.92
2023-04-19T06:35:07.928Z,73.65
2023-04-19T06:37:35.617Z,71.52
2023-04-19T06:40:05.054Z,71.24
2023-04-19T06:42:32.624Z,70.88
2023-04-19T06:45:00.179Z,72.14
2023-04-19T06:47:27.828Z,69.93
2023-04-19T06:49:57.696Z,69.30
2023-04-19T06:52:25.214Z,70.46
2023-04-19T06:54:53.069Z,72.19
2023-04-19T06:57:20.834Z,70.75
2023-04-19T06:59:48.458Z,69.48
2023-04-19T07:02:16.140Z,68.94
2023-04-19T07:04:43.910Z,68.66
2023-04-19T07:07:13.397Z,68.59
2023-04-19T07:09:40.980Z,68.74
2023-04-19T07:12:08.742Z,68.45
2023-04-19T07:14:36.468Z,68.52
2023-04-19T07:17:05.480Z,68.50
2023-04-19T07:19:33.115Z,68.16
2023-04-19T07:22:00.949Z,67.81
2023-04-19T07:24:30.421Z,68.05
2023-04-19T07:26:58.396Z,68.18
2023-04-19T07:29:25.965Z,68.28
2023-04-19T07:31:55.310Z,68.06
2023-04-19T07:34:22.993Z,69.35
2023-04-19T07:36:50.515Z,68.44
2023-04-19T07:39:18.029Z,67.74
2023-04-19T07:41:47.203Z,67.33
2023-04-19T07:44:15.132Z,66.57
2023-04-19T07:46:44.336Z,65.67
2023-04-19T07:49:11.923Z,65.40
2023-04-19T07:51:39.450Z,66.81
2023-04-19T07:54:07.286Z,64.25
2023-04-19T07:56:34.896Z,62.80
2023-04-19T07:59:08.866Z,65.08
2023-04-19T08:01:37.775Z,65.37
2023-04-19T08:04:05.850Z,62.18
2023-04-19T08:06:34.489Z,61.37
2023-04-19T08:09:02.089Z,61.97
2023-04-19T08:11:29.643Z,61.02
2023-04-19T08:17:06.563Z,60.72
2023-04-19T08:19:17.269Z,61.18
2023-04-19T08:21:44.847Z,61.08
2023-04-19T08:24:12.495Z,61.23
2023-04-19T08:26:40.250Z,61.49
2023-04-19T08:29:08.150Z,61.83
2023-04-19T08:31:37.351Z,61.60
2023-04-19T08:34:04.950Z,61.88
2023-04-19T08:36:41.160Z,62.04
2023-04-19T08:39:20.735Z,62.08
2023-04-19T08:42:07.489Z,62.44
2023-04-19T08:44:54.309Z,62.60
2023-04-19T08:47:34.012Z,63.00
2023-04-19T08:52:39.121Z,63.43
2023-04-19T08:55:13.545Z,65.35
2023-04-19T08:57:41.252Z,63.73
2023-04-19T09:00:11.352Z,63.37
2023-04-19T09:02:50.915Z,64.93
2023-04-19T09:05:20.263Z,63.21
2023-04-19T09:07:48.550Z,62.91
2023-04-19T09:10:17.823Z,61.71
2023-04-19T09:13:02.101Z,60.93
2023-04-19T09:15:38.209Z,59.78
2023-04-19T09:18:09.781Z,59.98
2023-04-19T09:20:41.809Z,60.70
2023-04-19T09:23:12.746Z,60.79
2023-04-19T09:25:59.277Z,61.29
2023-04-19T09:28:29.489Z,61.58
2023-04-19T09:31:05.574Z,61.91
2023-04-19T09:33:39.571Z,62.02
2023-04-19T09:36:07.734Z,62.58
2023-04-19T09:38:48.966Z,63.49
2023-04-19T09:41:17.281Z,63.42
2023-04-19T09:44:03.169Z,63.99
2023-04-19T09:46:34.454Z,64.56
2023-04-19T09:49:28.004Z,64.71
2023-04-19T09:52:08.632Z,63.51
2023-04-19T09:54:36.238Z,63.32
2023-04-19T09:57:03.887Z,63.20
2023-04-19T09:59:31.576Z,63.05
2023-04-19T10:02:02.094Z,63.19
2023-04-19T10:04:44.152Z,63.13
2023-04-19T10:07:29.953Z,62.80
2023-04-19T10:10:11.597Z,62.40
2023-04-19T10:13:07.460Z,62.52
2023-04-19T10:18:09.784Z,64.14
2023-04-19T10:20:47.645Z,63.22
2023-04-19T10:23:15.260Z,63.56
2023-04-19T10:25:47.300Z,64.45
2023-04-19T10:28:16.312Z,64.25
2023-04-19T10:30:54.702Z,64.19
2023-04-19T10:33:29.474Z,67.20
2023-04-19T10:35:59.688Z,65.14
2023-04-19T10:38:41.467Z,64.96
2023-04-19T10:41:16.866Z,65.19
2023-04-19T10:43:46.928Z,65.60
2023-04-19T10:46:16.794Z,66.57
2023-04-19T10:49:02.716Z,67.08
2023-04-19T10:51:35.697Z,66.83
2023-04-19T10:54:04.459Z,67.23
2023-04-19T10:57:11.919Z,68.20
2023-04-19T10:59:42.890Z,67.99
2023-04-19T11:02:29.435Z,70.16
2023-04-19T11:05:04.190Z,70.04
2023-04-19T11:07:40.871Z,70.24
2023-04-19T11:10:10.513Z,70.12
2023-04-19T11:12:38.254Z,70.15
2023-04-19T11:15:09.445Z,70.34
2023-04-19T11:17:38.703Z,70.57
2023-04-19T11:20:08.654Z,70.95
2023-04-19T11:22:37.673Z,71.20
2023-04-19T11:25:14.334Z,72.35
2023-04-19T11:27:43.037Z,71.48
2023-04-19T11:30:12.624Z,71.54
2023-04-19T11:32:46.047Z,72.66
2023-04-19T11:35:13.956Z,72.32
2023-04-19T11:37:41.576Z,72.66
2023-04-19T11:40:09.922Z,72.78
2023-04-19T11:42:38.952Z,72.64
2023-04-19T11:45:15.812Z,72.79
2023-04-19T11:47:50.214Z,73.06
2023-04-19T11:50:32.265Z,73.24
2023-04-19T11:52:59.992Z,73.02
2023-04-19T11:55:27.662Z,73.09
2023-04-19T11:57:56.572Z,73.00
2023-04-19T12:00:29.298Z,73.59
2023-04-19T12:02:56.862Z,73.58
2023-04-19T12:05:24.830Z,72.74
2023-04-19T12:08:02.860Z,73.52
2023-04-19T12:10:30.780Z,73.22
2023-04-19T12:13:00.270Z,73.63
2023-04-19T12:15:42.859Z,73.83
2023-04-19T12:18:10.861Z,73.49
2023-04-19T12:20:39.994Z,73.57
2023-04-19T12:23:11.109Z,73.55
2023-04-19T12:25:38.839Z,74.29
2023-04-19T12:28:07.928Z,73.85
2023-04-19T12:30:36.977Z,72.85
2023-04-19T12:33:04.962Z,72.44
2023-04-19T12:35:32.549Z,72.53
2023-04-19T12:38:00.984Z,72.86
2023-04-19T12:40:28.586Z,73.26
2023-04-19T12:42:56.101Z,72.51
2023-04-19T12:45:24.964Z,71.47
2023-04-19T12:47:52.676Z,71.17
2023-04-19T12:50:20.297Z,72.25
2023-04-19T12:52:47.826Z,71.31
2023-04-19T12:55:15.554Z,71.06
2023-04-19T12:57:43.671Z,70.56
2023-04-19T13:00:12.504Z,69.89
2023-04-19T13:02:41.462Z,70.22
2023-04-19T13:05:09.887Z,70.24
2023-04-19T13:07:37.453Z,70.16
2023-04-19T13:10:06.077Z,70.37
2023-04-19T13:12:33.618Z,70.06
2023-04-19T13:15:03.602Z,69.80
2023-04-19T13:17:31.806Z,69.95
2023-04-19T13:20:00.680Z,69.70
2023-04-19T13:22:28.244Z,69.55
2023-04-19T13:24:55.780Z,69.73
2023-04-19T13:27:23.369Z,69.78
2023-04-19T13:29:50.927Z,70.04
2023-04-19T13:32:18.462Z,70.01
2023-04-19T13:34:46.031Z,69.77
2023-04-19T13:37:15.024Z,69.97
2023-04-19T13:39:42.549Z,69.48
2023-04-19T13:42:10.404Z,69.33
2023-04-19T13:44:37.975Z,71.77
2023-04-19T13:47:05.682Z,70.68
2023-04-19T13:49:33.341Z,69.54
2023-04-19T13:52:00.873Z,69.51
2023-04-19T13:54:29.795Z,71.26
2023-04-19T13:56:57.846Z,69.76
2023-04-19T13:59:26.095Z,70.97
2023-04-19T14:01:55.840Z,72.23
2023-04-19T14:04:24.248Z,71.12
2023-04-19T14:06:52.340Z,69.29
2023-04-19T14:09:19.929Z,68.97
2023-04-19T14:11:49.370Z,67.66
2023-04-19T14:14:17.197Z,70.83
2023-04-19T14:16:45.160Z,69.11
2023-04-19T14:19:12.733Z,70.27
2023-04-19T14:21:40.337Z,68.12
2023-04-19T14:24:08.255Z,67.58
2023-04-19T14:26:35.930Z,69.37
2023-04-19T14:29:04.794Z,68.82
2023-04-19T14:31:32.436Z,67.90
2023-04-19T14:34:00.556Z,67.77
2023-04-19T14:36:28.088Z,68.41
2023-04-19T14:38:55.615Z,68.77
2023-04-19T14:41:23.120Z,68.86
2023-04-19T14:43:50.708Z,67.13
2023-04-19T14:46:19.634Z,67.51
2023-04-19T14:48:47.224Z,66.56
2023-04-19T14:51:14.768Z,66.70
2023-04-19T14:53:42.343Z,69.17
2023-04-19T14:56:09.947Z,67.06
2023-04-19T14:58:37.517Z,66.25
2023-04-19T15:01:12.488Z,64.87
2023-04-19T15:03:41.797Z,65.58
2023-04-19T15:06:09.559Z,68.78
2023-04-19T15:08:37.160Z,69.78
2023-04-19T15:11:04.804Z,69.75
2023-04-19T15:13:32.398Z,69.70
2023-04-19T15:16:02.508Z,69.47
2023-04-19T15:18:30.832Z,68.67
2023-04-19T15:20:59.821Z,68.61
2023-04-19T15:23:27.363Z,67.20
2023-04-19T15:25:54.923Z,68.45
2023-04-19T15:28:23.880Z,66.56
2023-04-19T15:30:58.605Z,68.77
2023-04-19T15:33:26.419Z,65.58
2023-04-19T15:35:54.913Z,64.96
2023-04-19T15:38:25.094Z,64.27
2023-04-19T15:40:52.848Z,62.94
2023-04-19T15:43:20.369Z,58.79
2023-04-19T15:45:47.877Z,55.89
2023-04-19T15:48:15.622Z,52.83
2023-04-19T15:50:44.309Z,50.90
2023-04-19T15:53:11.898Z,51.66
2023-04-19T15:55:41.372Z,47.47
2023-04-19T15:58:08.990Z,47.08
2023-04-19T16:00:36.668Z,45.60
2023-04-19T16:03:05.099Z,45.09
2023-04-19T16:05:32.731Z,44.19
2023-04-19T16:08:04.516Z,44.53
2023-04-19T16:10:32.451Z,44.24
2023-04-19T16:13:01.512Z,43.05
2023-04-19T16:15:29.487Z,43.40
2023-04-19T16:17:57.088Z,43.41
2023-04-19T16:20:25.048Z,43.57
2023-04-19T16:22:52.687Z,42.73
2023-04-19T16:25:20.233Z,42.31
2023-04-19T16:27:48.050Z,41.88
2023-04-19T16:30:17.616Z,41.58
2023-04-19T16:32:45.172Z,41.88
2023-04-19T16:35:12.853Z,41.75
2023-04-19T16:37:40.364Z,40.81
2023-04-19T16:40:09.435Z,40.09
2023-04-19T16:42:37.931Z,40.65
2023-04-19T16:45:06.818Z,40.34
2023-04-19T16:47:36.291Z,40.73
2023-04-19T16:50:06.154Z,41.13
2023-04-19T16:52:35.360Z,41.65
2023-04-19T16:55:04.480Z,43.33
2023-04-19T16:57:32.595Z,43.63
2023-04-19T17:00:00.290Z,42.85
2023-04-19T17:02:28.108Z,42.73
2023-04-19T17:04:57.465Z,42.19
2023-04-19T17:07:25.108Z,42.51
2023-04-19T17:09:52.649Z,42.56
2023-04-19T17:12:20.319Z,42.50
2023-04-19T17:14:47.854Z,42.76
2023-04-19T17:17:15.360Z,43.14
2023-04-19T17:19:42.932Z,43.09
2023-04-19T17:22:11.961Z,43.23
2023-04-19T17:24:39.574Z,43.40
2023-04-19T17:27:07.199Z,43.59
2023-04-19T17:29:34.765Z,43.63
2023-04-19T17:32:02.319Z,43.89
2023-04-19T17:34:29.861Z,44.24
2023-04-19T17:36:57.816Z,44.43
2023-04-19T17:39:27.904Z,44.69
2023-04-19T17:41:55.832Z,44.60
2023-04-19T17:44:23.538Z,44.90
2023-04-19T17:46:51.153Z,44.89
2023-04-19T17:49:20.133Z,45.26
2023-04-19T17:51:48.187Z,45.41
2023-04-19T19:12:34.651Z,48.06
2023-04-19T19:15:02.328Z,48.41
2023-04-19T19:17:29.882Z,48.35
2023-04-19T19:19:57.490Z,48.68
2023-04-19T19:22:28.790Z,48.71
2023-04-19T19:24:57.043Z,48.74
2023-04-19T19:27:24.820Z,48.75
2023-04-19T19:29:53.737Z,48.66
2023-04-19T19:32:21.320Z,48.86
2023-04-19T19:37:20.129Z,49.15
2023-04-19T19:39:47.629Z,49.47
2023-04-19T19:42:16.748Z,49.58
2023-04-19T19:44:44.624Z,49.39
2023-04-19T19:47:16.174Z,49.07
2023-04-19T19:50:08.759Z,52.65
2023-04-19T19:52:32.819Z,51.14
2023-04-19T19:55:00.939Z,52.22
2023-04-19T20:00:19.600Z,49.86
2023-04-19T20:05:19.365Z,49.39
2023-04-19T20:08:01.238Z,49.46
2023-04-19T20:10:29.716Z,49.79
2023-04-19T20:12:57.257Z,49.40
2023-04-19T20:15:25.093Z,49.60
2023-04-19T20:17:54.047Z,49.89
2023-04-19T20:20:21.824Z,49.88
2023-04-19T20:22:49.360Z,50.74
2023-04-19T20:25:16.964Z,50.52
2023-04-19T20:27:44.524Z,50.81
2023-04-19T20:30:12.747Z,53.45
2023-04-19T20:32:42.514Z,52.12
2023-04-19T20:35:12.793Z,52.03
2023-04-19T20:37:41.091Z,52.40
2023-04-19T20:40:12.146Z,59.19
2023-04-19T20:42:40.271Z,54.18
2023-04-19T20:45:10.552Z,53.51
2023-04-19T20:47:38.778Z,52.99
2023-04-19T20:50:06.944Z,54.93
2023-04-19T20:52:36.184Z,53.71
2023-04-19T20:55:03.807Z,53.43
2023-04-19T20:57:31.386Z,53.83
2023-04-19T20:59:58.896Z,53.49
2023-04-19T21:02:26.682Z,53.49
2023-04-19T21:04:54.353Z,53.38
2023-04-19T21:07:21.845Z,53.42
2023-04-19T21:09:50.666Z,54.14
2023-04-19T21:12:18.350Z,53.99
2023-04-19T21:14:49.281Z,55.99
2023-04-19T21:17:17.158Z,55.15
2023-04-19T21:19:44.686Z,55.41
2023-04-19T21:22:12.275Z,56.98
2023-04-19T21:24:39.801Z,56.38
2023-04-19T21:27:08.693Z,60.44
2023-04-19T21:29:36.187Z,58.38
2023-04-19T21:32:03.778Z,56.66
2023-04-19T21:34:31.467Z,56.37
2023-04-19T21:36:59.004Z,56.62
2023-04-19T21:39:26.532Z,57.14
2023-04-19T21:41:54.083Z,59.92
2023-04-19T21:44:22.912Z,60.57
2023-04-19T21:46:50.620Z,58.62
2023-04-19T21:49:18.319Z,60.51
2023-04-19T21:51:45.949Z,59.40
2023-04-19T21:54:20.537Z,62.72
2023-04-19T21:56:58.750Z,63.94
2023-04-19T21:59:27.619Z,66.12
2023-04-19T22:01:55.172Z,61.41
2023-04-19T22:04:22.938Z,62.05
2023-04-19T22:06:50.569Z,65.19
2023-04-19T22:09:18.220Z,65.36
2023-04-19T22:11:46.756Z,68.34
2023-04-19T22:14:14.291Z,68.95
2023-04-19T22:16:43.654Z,64.86
2023-04-19T22:19:11.714Z,66.33
2023-04-19T22:21:39.279Z,64.94
2023-04-19T22:24:07.768Z,63.32
2023-04-19T22:26:36.122Z,62.33
2023-04-19T22:29:03.612Z,63.84
2023-04-19T22:31:31.536Z,61.84
2023-04-19T22:34:00.389Z,60.56
2023-04-19T22:36:28.323Z,60.68
2023-04-19T22:38:55.937Z,60.76
2023-04-19T22:41:23.460Z,66.81
2023-04-19T22:43:50.946Z,67.72
2023-04-19T22:46:18.464Z,67.13
2023-04-19T22:48:48.186Z,69.19
2023-04-19T22:51:18.186Z,71.41
2023-04-19T22:53:45.873Z,68.61
2023-04-19T22:56:13.404Z,71.15
2023-04-19T22:58:40.973Z,72.00
2023-04-19T23:01:08.469Z,73.01
2023-04-19T23:03:36.177Z,72.36
2023-04-19T23:06:04.171Z,73.69
2023-04-19T23:08:33.498Z,72.71
2023-04-19T23:11:01.102Z,73.63
2023-04-19T23:13:28.623Z,74.00
2023-04-19T23:15:56.219Z,69.09
2023-04-19T23:18:23.737Z,65.91
2023-04-19T23:20:51.361Z,68.94
2023-04-19T23:23:20.051Z,72.10
2023-04-19T23:25:48.914Z,71.50
2023-04-19T23:28:16.797Z,67.22
2023-04-19T23:30:44.303Z,65.84
2023-04-19T23:33:11.830Z,66.62
2023-04-19T23:35:39.336Z,70.78
2023-04-19T23:38:06.900Z,73.64
2023-04-19T23:40:34.405Z,69.05
2023-04-19T23:43:03.573Z,70.04
2023-04-19T23:45:31.328Z,66.94
2023-04-19T23:47:58.893Z,69.21
2023-04-19T23:50:26.629Z,68.07
2023-04-19T23:52:54.190Z,68.55
2023-04-19T23:55:22.516Z,66.41
2023-04-19T23:57:50.092Z,65.59
